sensor_id;sensor_type;location;lat;lon;timestamp;temperature;humidity
21085;DHT22;34247;50.064;19.970;2023-02-03T00:00:27;19.70;27.40
21085;DHT22;34247;50.064;19.970;2023-02-03T00:01:37;19.70;26.80
21085;DHT22;34247;50.064;19.970;2023-02-03T00:02:41;19.70;26.70
21085;DHT22;34247;50.064;19.970;2023-02-03T00:03:45;19.70;26.70
21085;DHT22;34247;50.064;19.970;2023-02-03T00:04:51;19.70;26.70
21085;DHT22;34247;50.064;19.970;2023-02-03T00:05:55;19.70;26.60
21085;DHT22;34247;50.064;19.970;2023-02-03T00:06:59;19.70;26.70
21085;DHT22;34247;50.064;19.970;2023-02-03T00:08:04;19.80;26.70
21085;DHT22;34247;50.064;19.970;2023-02-03T00:09:14;19.90;27.00
21085;DHT22;34247;50.064;19.970;2023-02-03T00:10:18;19.90;26.60
21085;DHT22;34247;50.064;19.970;2023-02-03T00:11:25;19.80;26.60
21085;DHT22;34247;50.064;19.970;2023-02-03T00:12:35;19.80;26.60
21085;DHT22;34247;50.064;19.970;2023-02-03T00:13:40;19.90;26.60
21085;DHT22;34247;50.064;19.970;2023-02-03T00:14:44;19.90;26.50
21085;DHT22;34247;50.064;19.970;2023-02-03T00:15:48;19.90;26.50
21085;DHT22;34247;50.064;19.970;2023-02-03T00:16:52;19.80;26.50
21085;DHT22;34247;50.064;19.970;2023-02-03T00:17:58;19.80;26.60
21085;DHT22;34247;50.064;19.970;2023-02-03T00:19:02;19.80;26.60
21085;DHT22;34247;50.064;19.970;2023-02-03T00:20:18;19.80;26.60
21085;DHT22;34247;50.064;19.970;2023-02-03T00:21:22;19.90;26.60
21085;DHT22;34247;50.064;19.970;2023-02-03T00:22:27;19.80;26.60
21085;DHT22;34247;50.064;19.970;2023-02-03T00:23:31;19.80;26.50
21085;DHT22;34247;50.064;19.970;2023-02-03T00:24:36;19.90;26.50
21085;DHT22;34247;50.064;19.970;2023-02-03T00:25:43;19.80;26.50
21085;DHT22;34247;50.064;19.970;2023-02-03T00:26:58;19.80;26.50
21085;DHT22;34247;50.064;19.970;2023-02-03T00:28:02;19.80;26.60
21085;DHT22;34247;50.064;19.970;2023-02-03T00:29:06;19.80;26.60
21085;DHT22;34247;50.064;19.970;2023-02-03T00:30:16;19.70;26.60
21085;DHT22;34247;50.064;19.970;2023-02-03T00:31:22;19.70;26.60
21085;DHT22;34247;50.064;19.970;2023-02-03T00:32:30;19.70;26.60
21085;DHT22;34247;50.064;19.970;2023-02-03T00:33:34;19.70;26.60
21085;DHT22;34247;50.064;19.970;2023-02-03T00:34:43;19.80;26.70
21085;DHT22;34247;50.064;19.970;2023-02-03T00:35:47;19.80;27.20
21085;DHT22;34247;50.064;19.970;2023-02-03T00:36:55;19.70;26.70
21085;DHT22;34247;50.064;19.970;2023-02-03T00:38:03;19.70;27.20
21085;DHT22;34247;50.064;19.970;2023-02-03T00:39:08;19.70;26.60
21085;DHT22;34247;50.064;19.970;2023-02-03T00:40:23;19.70;26.70
21085;DHT22;34247;50.064;19.970;2023-02-03T00:41:32;19.80;26.60
21085;DHT22;34247;50.064;19.970;2023-02-03T00:42:36;19.80;26.60
21085;DHT22;34247;50.064;19.970;2023-02-03T00:43:42;19.80;26.60
21085;DHT22;34247;50.064;19.970;2023-02-03T00:44:53;19.80;26.50
21085;DHT22;34247;50.064;19.970;2023-02-03T00:45:58;19.80;26.60
21085;DHT22;34247;50.064;19.970;2023-02-03T00:47:06;19.90;26.60
21085;DHT22;34247;50.064;19.970;2023-02-03T00:48:20;19.80;26.50
21085;DHT22;34247;50.064;19.970;2023-02-03T00:49:28;19.80;26.50
21085;DHT22;34247;50.064;19.970;2023-02-03T00:50:32;19.80;26.50
21085;DHT22;34247;50.064;19.970;2023-02-03T00:51:44;19.80;26.50
21085;DHT22;34247;50.064;19.970;2023-02-03T00:52:54;19.80;26.50
21085;DHT22;34247;50.064;19.970;2023-02-03T00:53:57;19.80;26.50
21085;DHT22;34247;50.064;19.970;2023-02-03T00:55:05;19.80;26.40
21085;DHT22;34247;50.064;19.970;2023-02-03T00:56:28;19.80;26.50
21085;DHT22;34247;50.064;19.970;2023-02-03T00:57:32;19.80;26.40
21085;DHT22;34247;50.064;19.970;2023-02-03T00:58:40;19.80;26.30
21085;DHT22;34247;50.064;19.970;2023-02-03T00:59:44;19.80;26.40
21085;DHT22;34247;50.064;19.970;2023-02-03T01:00:49;19.90;26.20
21085;DHT22;34247;50.064;19.970;2023-02-03T01:01:55;19.90;26.10
21085;DHT22;34247;50.064;19.970;2023-02-03T01:03:02;19.90;26.20
21085;DHT22;34247;50.064;19.970;2023-02-03T01:04:06;19.90;26.10
21085;DHT22;34247;50.064;19.970;2023-02-03T01:05:12;19.80;26.10
21085;DHT22;34247;50.064;19.970;2023-02-03T01:06:19;19.80;26.30
21085;DHT22;34247;50.064;19.970;2023-02-03T01:07:29;19.80;26.30
21085;DHT22;34247;50.064;19.970;2023-02-03T01:08:35;19.80;26.30
21085;DHT22;34247;50.064;19.970;2023-02-03T01:09:44;19.80;26.30
21085;DHT22;34247;50.064;19.970;2023-02-03T01:10:49;19.80;26.30
21085;DHT22;34247;50.064;19.970;2023-02-03T01:11:57;19.80;26.30
21085;DHT22;34247;50.064;19.970;2023-02-03T01:13:03;19.90;25.90
21085;DHT22;34247;50.064;19.970;2023-02-03T01:14:08;19.80;25.90
21085;DHT22;34247;50.064;19.970;2023-02-03T01:15:22;19.80;25.90
21085;DHT22;34247;50.064;19.970;2023-02-03T01:16:27;19.80;26.00
21085;DHT22;34247;50.064;19.970;2023-02-03T01:17:37;19.80;26.00
21085;DHT22;34247;50.064;19.970;2023-02-03T01:18:41;19.80;25.90
21085;DHT22;34247;50.064;19.970;2023-02-03T01:19:50;19.80;26.00
21085;DHT22;34247;50.064;19.970;2023-02-03T01:20:57;19.80;26.00
21085;DHT22;34247;50.064;19.970;2023-02-03T01:22:53;19.70;26.00
21085;DHT22;34247;50.064;19.970;2023-02-03T01:24:00;19.90;24.90
21085;DHT22;34247;50.064;19.970;2023-02-03T01:25:12;19.90;24.70
21085;DHT22;34247;50.064;19.970;2023-02-03T01:26:23;20.00;24.60
21085;DHT22;34247;50.064;19.970;2023-02-03T01:27:28;20.00;24.70
21085;DHT22;34247;50.064;19.970;2023-02-03T01:28:34;20.00;24.50
21085;DHT22;34247;50.064;19.970;2023-02-03T01:29:39;19.90;24.60
21085;DHT22;34247;50.064;19.970;2023-02-03T01:30:44;19.90;24.70
21085;DHT22;34247;50.064;19.970;2023-02-03T01:31:54;19.90;24.90
21085;DHT22;34247;50.064;19.970;2023-02-03T01:33:06;19.90;25.20
21085;DHT22;34247;50.064;19.970;2023-02-03T01:34:20;19.90;25.50
21085;DHT22;34247;50.064;19.970;2023-02-03T01:35:25;19.90;25.60
21085;DHT22;34247;50.064;19.970;2023-02-03T01:36:30;19.90;25.80
21085;DHT22;34247;50.064;19.970;2023-02-03T01:37:36;19.80;25.80
21085;DHT22;34247;50.064;19.970;2023-02-03T01:38:40;19.80;26.00
21085;DHT22;34247;50.064;19.970;2023-02-03T01:39:44;19.80;26.20
21085;DHT22;34247;50.064;19.970;2023-02-03T01:40:47;19.90;26.30
21085;DHT22;34247;50.064;19.970;2023-02-03T01:41:53;19.90;26.20
21085;DHT22;34247;50.064;19.970;2023-02-03T01:42:58;19.90;26.20
21085;DHT22;34247;50.064;19.970;2023-02-03T01:44:38;19.90;26.30
21085;DHT22;34247;50.064;19.970;2023-02-03T01:45:43;19.80;26.10
21085;DHT22;34247;50.064;19.970;2023-02-03T01:46:49;19.80;26.20
21085;DHT22;34247;50.064;19.970;2023-02-03T01:48:01;19.70;26.30
21085;DHT22;34247;50.064;19.970;2023-02-03T01:49:32;19.70;26.50
21085;DHT22;34247;50.064;19.970;2023-02-03T01:51:03;19.70;26.50
21085;DHT22;34247;50.064;19.970;2023-02-03T01:52:30;19.70;26.50
21085;DHT22;34247;50.064;19.970;2023-02-03T01:53:37;19.70;26.50
21085;DHT22;34247;50.064;19.970;2023-02-03T01:54:43;19.70;26.50
21085;DHT22;34247;50.064;19.970;2023-02-03T01:55:54;19.60;26.50
21085;DHT22;34247;50.064;19.970;2023-02-03T01:57:12;19.60;26.60
21085;DHT22;34247;50.064;19.970;2023-02-03T01:58:36;19.60;26.60
21085;DHT22;34247;50.064;19.970;2023-02-03T01:59:47;19.60;26.70
21085;DHT22;34247;50.064;19.970;2023-02-03T02:01:01;19.50;26.70
21085;DHT22;34247;50.064;19.970;2023-02-03T02:02:07;19.60;26.70
21085;DHT22;34247;50.064;19.970;2023-02-03T02:03:47;19.60;26.60
21085;DHT22;34247;50.064;19.970;2023-02-03T02:05:24;19.60;26.60
21085;DHT22;34247;50.064;19.970;2023-02-03T02:06:43;19.60;26.60
21085;DHT22;34247;50.064;19.970;2023-02-03T02:08:01;19.60;26.50
21085;DHT22;34247;50.064;19.970;2023-02-03T02:09:11;19.70;26.40
21085;DHT22;34247;50.064;19.970;2023-02-03T02:10:37;19.70;26.50
21085;DHT22;34247;50.064;19.970;2023-02-03T02:11:54;19.70;26.30
21085;DHT22;34247;50.064;19.970;2023-02-03T02:13:02;19.70;26.30
21085;DHT22;34247;50.064;19.970;2023-02-03T02:14:15;19.60;26.20
21085;DHT22;34247;50.064;19.970;2023-02-03T02:15:48;19.70;26.10
21085;DHT22;34247;50.064;19.970;2023-02-03T02:18:46;19.60;26.00
21085;DHT22;34247;50.064;19.970;2023-02-03T02:20:06;19.60;26.10
21085;DHT22;34247;50.064;19.970;2023-02-03T02:23:46;19.70;25.70
21085;DHT22;34247;50.064;19.970;2023-02-03T02:31:55;19.60;25.70
21085;DHT22;34247;50.064;19.970;2023-02-03T02:35:54;19.60;25.60
21085;DHT22;34247;50.064;19.970;2023-02-03T02:39:11;19.60;25.60
21085;DHT22;34247;50.064;19.970;2023-02-03T02:42:03;19.60;25.60
21085;DHT22;34247;50.064;19.970;2023-02-03T02:44:55;19.60;25.50
21085;DHT22;34247;50.064;19.970;2023-02-03T02:46:46;19.60;25.50
21085;DHT22;34247;50.064;19.970;2023-02-03T02:50:15;19.60;25.40
21085;DHT22;34247;50.064;19.970;2023-02-03T02:51:30;19.50;25.50
21085;DHT22;34247;50.064;19.970;2023-02-03T02:52:43;19.50;25.50
21085;DHT22;34247;50.064;19.970;2023-02-03T02:54:05;19.50;25.60
21085;DHT22;34247;50.064;19.970;2023-02-03T02:55:28;19.50;25.60
21085;DHT22;34247;50.064;19.970;2023-02-03T02:56:38;19.50;25.50
21085;DHT22;34247;50.064;19.970;2023-02-03T02:57:50;19.50;25.50
21085;DHT22;34247;50.064;19.970;2023-02-03T02:59:02;19.40;25.60
21085;DHT22;34247;50.064;19.970;2023-02-03T03:00:34;19.50;25.50
21085;DHT22;34247;50.064;19.970;2023-02-03T03:01:57;19.50;25.40
21085;DHT22;34247;50.064;19.970;2023-02-03T03:03:19;19.60;25.30
21085;DHT22;34247;50.064;19.970;2023-02-03T03:04:30;19.50;25.30
21085;DHT22;34247;50.064;19.970;2023-02-03T03:05:45;19.50;25.40
21085;DHT22;34247;50.064;19.970;2023-02-03T03:07:03;19.50;25.40
21085;DHT22;34247;50.064;19.970;2023-02-03T03:08:19;19.40;25.40
21085;DHT22;34247;50.064;19.970;2023-02-03T03:10:02;19.40;25.30
21085;DHT22;34247;50.064;19.970;2023-02-03T03:11:16;19.40;25.30
21085;DHT22;34247;50.064;19.970;2023-02-03T03:12:23;19.40;25.30
21085;DHT22;34247;50.064;19.970;2023-02-03T03:13:34;19.40;25.30
21085;DHT22;34247;50.064;19.970;2023-02-03T03:15:24;19.40;25.20
21085;DHT22;34247;50.064;19.970;2023-02-03T03:16:34;19.50;24.90
21085;DHT22;34247;50.064;19.970;2023-02-03T03:18:48;19.40;25.00
21085;DHT22;34247;50.064;19.970;2023-02-03T03:19:39;19.50;25.00
21085;DHT22;34247;50.064;19.970;2023-02-03T03:20:57;19.40;25.10
21085;DHT22;34247;50.064;19.970;2023-02-03T03:22:19;19.40;25.30
21085;DHT22;34247;50.064;19.970;2023-02-03T03:23:37;19.40;25.30
21085;DHT22;34247;50.064;19.970;2023-02-03T03:24:47;19.30;25.30
21085;DHT22;34247;50.064;19.970;2023-02-03T03:26:11;19.30;25.40
21085;DHT22;34247;50.064;19.970;2023-02-03T03:27:37;19.30;25.50
21085;DHT22;34247;50.064;19.970;2023-02-03T03:28:50;19.20;25.40
21085;DHT22;34247;50.064;19.970;2023-02-03T03:30:25;19.30;25.60
21085;DHT22;34247;50.064;19.970;2023-02-03T03:31:47;19.30;25.50
21085;DHT22;34247;50.064;19.970;2023-02-03T03:32:51;19.20;25.50
21085;DHT22;34247;50.064;19.970;2023-02-03T03:33:56;19.30;25.50
21085;DHT22;34247;50.064;19.970;2023-02-03T03:35:01;19.30;25.40
21085;DHT22;34247;50.064;19.970;2023-02-03T03:37:23;19.20;25.50
21085;DHT22;34247;50.064;19.970;2023-02-03T03:38:39;19.20;25.50
21085;DHT22;34247;50.064;19.970;2023-02-03T03:40:06;19.10;25.40
21085;DHT22;34247;50.064;19.970;2023-02-03T03:43:02;19.00;25.50
21085;DHT22;34247;50.064;19.970;2023-02-03T03:44:15;19.00;25.60
21085;DHT22;34247;50.064;19.970;2023-02-03T03:45:30;19.00;25.60
21085;DHT22;34247;50.064;19.970;2023-02-03T03:48:26;19.00;25.60
21085;DHT22;34247;50.064;19.970;2023-02-03T03:49:35;19.00;25.50
21085;DHT22;34247;50.064;19.970;2023-02-03T03:50:52;19.00;25.40
21085;DHT22;34247;50.064;19.970;2023-02-03T03:52:08;19.00;25.40
21085;DHT22;34247;50.064;19.970;2023-02-03T03:53:16;18.90;25.40
21085;DHT22;34247;50.064;19.970;2023-02-03T03:54:24;18.90;25.40
21085;DHT22;34247;50.064;19.970;2023-02-03T03:55:47;18.90;25.40
21085;DHT22;34247;50.064;19.970;2023-02-03T03:58:45;18.90;25.30
21085;DHT22;34247;50.064;19.970;2023-02-03T03:59:53;18.90;25.30
21085;DHT22;34247;50.064;19.970;2023-02-03T04:01:03;18.90;25.30
21085;DHT22;34247;50.064;19.970;2023-02-03T04:02:11;18.80;25.30
21085;DHT22;34247;50.064;19.970;2023-02-03T04:03:22;18.80;25.30
21085;DHT22;34247;50.064;19.970;2023-02-03T04:04:36;18.80;25.40
21085;DHT22;34247;50.064;19.970;2023-02-03T04:05:49;18.80;25.30
21085;DHT22;34247;50.064;19.970;2023-02-03T04:06:57;18.80;25.30
21085;DHT22;34247;50.064;19.970;2023-02-03T04:08:04;18.80;25.30
21085;DHT22;34247;50.064;19.970;2023-02-03T04:09:14;18.80;25.30
21085;DHT22;34247;50.064;19.970;2023-02-03T04:10:27;18.80;25.40
21085;DHT22;34247;50.064;19.970;2023-02-03T04:11:34;18.80;25.40
21085;DHT22;34247;50.064;19.970;2023-02-03T04:12:58;18.80;25.30
21085;DHT22;34247;50.064;19.970;2023-02-03T04:14:05;18.80;25.30
21085;DHT22;34247;50.064;19.970;2023-02-03T04:15:11;18.80;25.30
21085;DHT22;34247;50.064;19.970;2023-02-03T04:16:22;18.80;25.40
21085;DHT22;34247;50.064;19.970;2023-02-03T04:17:27;18.70;25.90
21085;DHT22;34247;50.064;19.970;2023-02-03T04:18:31;18.70;25.40
21085;DHT22;34247;50.064;19.970;2023-02-03T04:19:35;18.80;25.50
21085;DHT22;34247;50.064;19.970;2023-02-03T04:20:44;18.70;25.40
21085;DHT22;34247;50.064;19.970;2023-02-03T04:21:56;18.70;25.40
21085;DHT22;34247;50.064;19.970;2023-02-03T04:23:00;18.70;25.40
21085;DHT22;34247;50.064;19.970;2023-02-03T04:24:05;18.70;25.50
21085;DHT22;34247;50.064;19.970;2023-02-03T04:25:11;18.70;25.40
21085;DHT22;34247;50.064;19.970;2023-02-03T04:26:20;18.70;25.40
21085;DHT22;34247;50.064;19.970;2023-02-03T04:27:27;18.70;25.40
21085;DHT22;34247;50.064;19.970;2023-02-03T04:28:31;18.70;25.40
21085;DHT22;34247;50.064;19.970;2023-02-03T04:29:35;18.70;25.30
21085;DHT22;34247;50.064;19.970;2023-02-03T04:30:46;18.70;25.30
21085;DHT22;34247;50.064;19.970;2023-02-03T04:31:52;18.70;25.30
21085;DHT22;34247;50.064;19.970;2023-02-03T04:32:57;18.70;25.30
21085;DHT22;34247;50.064;19.970;2023-02-03T04:34:05;18.70;25.30
21085;DHT22;34247;50.064;19.970;2023-02-03T04:35:11;18.70;25.30
21085;DHT22;34247;50.064;19.970;2023-02-03T04:36:25;18.80;25.20
21085;DHT22;34247;50.064;19.970;2023-02-03T04:37:31;18.80;25.10
21085;DHT22;34247;50.064;19.970;2023-02-03T04:38:35;18.70;25.00
21085;DHT22;34247;50.064;19.970;2023-02-03T04:39:42;18.90;25.00
21085;DHT22;34247;50.064;19.970;2023-02-03T04:40:47;18.90;24.90
21085;DHT22;34247;50.064;19.970;2023-02-03T04:41:58;18.80;24.90
21085;DHT22;34247;50.064;19.970;2023-02-03T04:43:06;18.80;24.90
21085;DHT22;34247;50.064;19.970;2023-02-03T04:44:15;18.70;24.90
21085;DHT22;34247;50.064;19.970;2023-02-03T04:45:23;18.70;25.00
21085;DHT22;34247;50.064;19.970;2023-02-03T04:46:33;18.60;25.10
21085;DHT22;34247;50.064;19.970;2023-02-03T04:47:43;18.60;25.10
21085;DHT22;34247;50.064;19.970;2023-02-03T04:48:52;18.60;25.30
21085;DHT22;34247;50.064;19.970;2023-02-03T04:49:55;18.50;25.30
21085;DHT22;34247;50.064;19.970;2023-02-03T04:51:05;18.60;25.20
21085;DHT22;34247;50.064;19.970;2023-02-03T04:52:18;18.60;25.10
21085;DHT22;34247;50.064;19.970;2023-02-03T04:53:27;18.60;25.10
21085;DHT22;34247;50.064;19.970;2023-02-03T04:54:35;18.60;25.10
21085;DHT22;34247;50.064;19.970;2023-02-03T04:55:47;18.60;25.10
21085;DHT22;34247;50.064;19.970;2023-02-03T04:56:52;18.60;25.10
21085;DHT22;34247;50.064;19.970;2023-02-03T04:58:00;18.60;25.10
21085;DHT22;34247;50.064;19.970;2023-02-03T04:59:06;18.50;25.10
21085;DHT22;34247;50.064;19.970;2023-02-03T05:00:17;18.50;25.10
21085;DHT22;34247;50.064;19.970;2023-02-03T05:01:23;18.50;25.20
21085;DHT22;34247;50.064;19.970;2023-02-03T05:02:29;18.50;25.30
21085;DHT22;34247;50.064;19.970;2023-02-03T05:03:32;18.50;25.40
21085;DHT22;34247;50.064;19.970;2023-02-03T05:04:40;18.40;25.40
21085;DHT22;34247;50.064;19.970;2023-02-03T05:05:46;18.40;25.40
21085;DHT22;34247;50.064;19.970;2023-02-03T05:06:51;18.40;25.50
21085;DHT22;34247;50.064;19.970;2023-02-03T05:07:59;18.40;25.50
21085;DHT22;34247;50.064;19.970;2023-02-03T05:09:06;18.50;25.40
21085;DHT22;34247;50.064;19.970;2023-02-03T05:10:15;18.40;25.30
21085;DHT22;34247;50.064;19.970;2023-02-03T05:12:41;18.40;25.40
21085;DHT22;34247;50.064;19.970;2023-02-03T05:13:47;18.40;25.50
21085;DHT22;34247;50.064;19.970;2023-02-03T05:14:53;18.40;25.50
21085;DHT22;34247;50.064;19.970;2023-02-03T05:15:59;18.30;25.50
21085;DHT22;34247;50.064;19.970;2023-02-03T05:17:06;18.30;25.50
21085;DHT22;34247;50.064;19.970;2023-02-03T05:18:11;18.40;25.60
21085;DHT22;34247;50.064;19.970;2023-02-03T05:19:29;18.40;25.50
21085;DHT22;34247;50.064;19.970;2023-02-03T05:20:34;18.40;25.90
21085;DHT22;34247;50.064;19.970;2023-02-03T05:21:46;18.40;25.50
21085;DHT22;34247;50.064;19.970;2023-02-03T05:22:51;18.40;25.40
21085;DHT22;34247;50.064;19.970;2023-02-03T05:23:58;18.40;25.40
21085;DHT22;34247;50.064;19.970;2023-02-03T05:25:03;18.40;25.50
21085;DHT22;34247;50.064;19.970;2023-02-03T05:26:08;18.40;25.90
21085;DHT22;34247;50.064;19.970;2023-02-03T05:27:20;18.40;25.40
21085;DHT22;34247;50.064;19.970;2023-02-03T05:28:24;18.40;25.50
21085;DHT22;34247;50.064;19.970;2023-02-03T05:29:28;18.50;25.40
21085;DHT22;34247;50.064;19.970;2023-02-03T05:30:33;18.50;25.40
21085;DHT22;34247;50.064;19.970;2023-02-03T05:31:42;18.50;25.30
21085;DHT22;34247;50.064;19.970;2023-02-03T05:32:50;18.50;25.30
21085;DHT22;34247;50.064;19.970;2023-02-03T05:33:57;18.50;25.30
21085;DHT22;34247;50.064;19.970;2023-02-03T05:35:04;18.40;25.30
21085;DHT22;34247;50.064;19.970;2023-02-03T05:36:09;18.40;25.40
21085;DHT22;34247;50.064;19.970;2023-02-03T05:37:16;18.50;25.50
21085;DHT22;34247;50.064;19.970;2023-02-03T05:38:21;18.40;25.40
21085;DHT22;34247;50.064;19.970;2023-02-03T05:39:25;18.40;25.40
21085;DHT22;34247;50.064;19.970;2023-02-03T05:40:28;18.40;25.50
21085;DHT22;34247;50.064;19.970;2023-02-03T05:41:51;18.30;25.40
21085;DHT22;34247;50.064;19.970;2023-02-03T05:42:54;18.30;25.50
21085;DHT22;34247;50.064;19.970;2023-02-03T05:43:58;18.30;25.60
21085;DHT22;34247;50.064;19.970;2023-02-03T05:45:02;18.30;25.60
21085;DHT22;34247;50.064;19.970;2023-02-03T05:46:10;18.30;25.60
21085;DHT22;34247;50.064;19.970;2023-02-03T05:47:17;18.30;25.70
21085;DHT22;34247;50.064;19.970;2023-02-03T05:48:28;18.30;25.70
21085;DHT22;34247;50.064;19.970;2023-02-03T05:49:36;18.30;25.70
21085;DHT22;34247;50.064;19.970;2023-02-03T05:50:44;18.20;25.60
21085;DHT22;34247;50.064;19.970;2023-02-03T05:51:50;18.20;25.70
21085;DHT22;34247;50.064;19.970;2023-02-03T05:52:58;18.20;25.70
21085;DHT22;34247;50.064;19.970;2023-02-03T05:54:05;18.30;25.70
21085;DHT22;34247;50.064;19.970;2023-02-03T05:55:19;18.20;25.70
21085;DHT22;34247;50.064;19.970;2023-02-03T05:56:31;18.30;25.70
21085;DHT22;34247;50.064;19.970;2023-02-03T05:57:36;18.30;25.70
21085;DHT22;34247;50.064;19.970;2023-02-03T05:58:41;18.30;25.70
21085;DHT22;34247;50.064;19.970;2023-02-03T05:59:49;18.30;25.60
21085;DHT22;34247;50.064;19.970;2023-02-03T06:00:55;18.30;25.60
21085;DHT22;34247;50.064;19.970;2023-02-03T06:02:00;18.30;25.60
21085;DHT22;34247;50.064;19.970;2023-02-03T06:03:13;18.30;25.60
21085;DHT22;34247;50.064;19.970;2023-02-03T06:04:20;18.30;25.70
21085;DHT22;34247;50.064;19.970;2023-02-03T06:05:25;18.20;25.70
21085;DHT22;34247;50.064;19.970;2023-02-03T06:06:34;18.30;25.70
21085;DHT22;34247;50.064;19.970;2023-02-03T06:07:45;18.20;25.70
21085;DHT22;34247;50.064;19.970;2023-02-03T06:08:54;18.30;26.30
21085;DHT22;34247;50.064;19.970;2023-02-03T06:09:59;18.30;25.70
21085;DHT22;34247;50.064;19.970;2023-02-03T06:11:03;18.20;25.70
21085;DHT22;34247;50.064;19.970;2023-02-03T06:12:11;18.20;25.70
21085;DHT22;34247;50.064;19.970;2023-02-03T06:13:22;18.30;25.70
21085;DHT22;34247;50.064;19.970;2023-02-03T06:14:36;18.30;25.60
21085;DHT22;34247;50.064;19.970;2023-02-03T06:15:45;18.40;25.60
21085;DHT22;34247;50.064;19.970;2023-02-03T06:16:52;18.30;25.50
21085;DHT22;34247;50.064;19.970;2023-02-03T06:17:58;18.30;25.50
21085;DHT22;34247;50.064;19.970;2023-02-03T06:19:05;18.20;25.50
21085;DHT22;34247;50.064;19.970;2023-02-03T06:20:14;18.20;25.60
21085;DHT22;34247;50.064;19.970;2023-02-03T06:21:21;18.20;25.70
21085;DHT22;34247;50.064;19.970;2023-02-03T06:22:28;18.20;25.70
21085;DHT22;34247;50.064;19.970;2023-02-03T06:23:32;18.20;25.70
21085;DHT22;34247;50.064;19.970;2023-02-03T06:24:37;18.20;25.80
21085;DHT22;34247;50.064;19.970;2023-02-03T06:25:49;18.20;25.80
21085;DHT22;34247;50.064;19.970;2023-02-03T06:27:15;18.20;25.80
21085;DHT22;34247;50.064;19.970;2023-02-03T06:28:22;18.30;25.60
21085;DHT22;34247;50.064;19.970;2023-02-03T06:29:27;18.40;25.50
21085;DHT22;34247;50.064;19.970;2023-02-03T06:30:32;18.50;25.40
21085;DHT22;34247;50.064;19.970;2023-02-03T06:31:37;18.50;25.30
21085;DHT22;34247;50.064;19.970;2023-02-03T06:32:44;18.50;25.30
21085;DHT22;34247;50.064;19.970;2023-02-03T06:33:50;18.40;25.30
21085;DHT22;34247;50.064;19.970;2023-02-03T06:34:59;18.50;25.40
21085;DHT22;34247;50.064;19.970;2023-02-03T06:36:04;18.40;25.30
21085;DHT22;34247;50.064;19.970;2023-02-03T06:37:10;18.40;25.30
21085;DHT22;34247;50.064;19.970;2023-02-03T06:38:22;18.40;25.40
21085;DHT22;34247;50.064;19.970;2023-02-03T06:39:31;18.30;25.50
21085;DHT22;34247;50.064;19.970;2023-02-03T06:40:39;18.30;25.50
21085;DHT22;34247;50.064;19.970;2023-02-03T06:41:47;18.30;25.50
21085;DHT22;34247;50.064;19.970;2023-02-03T06:42:53;18.30;25.50
21085;DHT22;34247;50.064;19.970;2023-02-03T07:21:18;18.60;25.10
21085;DHT22;34247;50.064;19.970;2023-02-03T07:22:24;18.70;24.90
21085;DHT22;34247;50.064;19.970;2023-02-03T07:23:28;18.60;24.90
21085;DHT22;34247;50.064;19.970;2023-02-03T07:24:37;18.60;25.00
21085;DHT22;34247;50.064;19.970;2023-02-03T07:25:52;18.60;24.90
21085;DHT22;34247;50.064;19.970;2023-02-03T07:26:57;18.60;25.00
21085;DHT22;34247;50.064;19.970;2023-02-03T07:28:04;18.60;25.10
21085;DHT22;34247;50.064;19.970;2023-02-03T07:29:11;18.70;24.70
21085;DHT22;34247;50.064;19.970;2023-02-03T07:30:22;18.70;24.70
21085;DHT22;34247;50.064;19.970;2023-02-03T07:31:32;18.60;24.80
21085;DHT22;34247;50.064;19.970;2023-02-03T07:32:50;18.60;24.80
21085;DHT22;34247;50.064;19.970;2023-02-03T07:33:58;18.60;24.90
21085;DHT22;34247;50.064;19.970;2023-02-03T07:35:06;18.60;24.90
21085;DHT22;34247;50.064;19.970;2023-02-03T07:36:11;18.60;25.00
21085;DHT22;34247;50.064;19.970;2023-02-03T07:37:16;18.60;25.00
21085;DHT22;34247;50.064;19.970;2023-02-03T07:38:23;18.60;25.00
21085;DHT22;34247;50.064;19.970;2023-02-03T07:39:30;18.60;25.00
21085;DHT22;34247;50.064;19.970;2023-02-03T07:40:37;18.60;25.00
21085;DHT22;34247;50.064;19.970;2023-02-03T07:41:44;18.60;25.00
21085;DHT22;34247;50.064;19.970;2023-02-03T07:42:49;18.70;25.00
21085;DHT22;34247;50.064;19.970;2023-02-03T07:43:56;18.70;25.10
21085;DHT22;34247;50.064;19.970;2023-02-03T07:45:01;18.70;25.10
21085;DHT22;34247;50.064;19.970;2023-02-03T07:46:06;18.70;25.10
21085;DHT22;34247;50.064;19.970;2023-02-03T07:47:15;18.80;24.80
21085;DHT22;34247;50.064;19.970;2023-02-03T07:50:16;18.80;24.50
21085;DHT22;34247;50.064;19.970;2023-02-03T07:51:33;18.90;24.40
21085;DHT22;34247;50.064;19.970;2023-02-03T07:52:40;18.90;24.30
21085;DHT22;34247;50.064;19.970;2023-02-03T07:53:45;19.00;24.10
21085;DHT22;34247;50.064;19.970;2023-02-03T07:54:50;18.90;24.20
21085;DHT22;34247;50.064;19.970;2023-02-03T07:56:02;18.90;24.30
21085;DHT22;34247;50.064;19.970;2023-02-03T07:57:08;19.00;24.20
21085;DHT22;34247;50.064;19.970;2023-02-03T07:58:13;19.00;24.10
21085;DHT22;34247;50.064;19.970;2023-02-03T07:59:17;19.00;24.10
21085;DHT22;34247;50.064;19.970;2023-02-03T08:00:23;19.00;24.20
21085;DHT22;34247;50.064;19.970;2023-02-03T08:01:30;19.00;24.00
21085;DHT22;34247;50.064;19.970;2023-02-03T08:02:44;19.10;23.80
21085;DHT22;34247;50.064;19.970;2023-02-03T08:03:50;19.10;23.80
21085;DHT22;34247;50.064;19.970;2023-02-03T08:04:57;19.10;23.90
21085;DHT22;34247;50.064;19.970;2023-02-03T08:06:01;19.10;23.90
21085;DHT22;34247;50.064;19.970;2023-02-03T08:07:05;19.10;23.90
21085;DHT22;34247;50.064;19.970;2023-02-03T08:08:08;19.10;24.00
21085;DHT22;34247;50.064;19.970;2023-02-03T08:09:12;19.20;22.90
21085;DHT22;34247;50.064;19.970;2023-02-03T08:10:16;19.20;22.80
21085;DHT22;34247;50.064;19.970;2023-02-03T08:11:20;19.30;22.80
21085;DHT22;34247;50.064;19.970;2023-02-03T08:12:24;19.30;22.80
21085;DHT22;34247;50.064;19.970;2023-02-03T08:13:28;19.30;22.90
21085;DHT22;34247;50.064;19.970;2023-02-03T08:14:33;19.30;22.80
21085;DHT22;34247;50.064;19.970;2023-02-03T08:15:36;19.20;22.90
21085;DHT22;34247;50.064;19.970;2023-02-03T08:16:44;19.20;23.00
21085;DHT22;34247;50.064;19.970;2023-02-03T08:17:52;19.20;23.00
21085;DHT22;34247;50.064;19.970;2023-02-03T08:19:03;19.20;22.80
21085;DHT22;34247;50.064;19.970;2023-02-03T08:20:09;19.20;22.80
21085;DHT22;34247;50.064;19.970;2023-02-03T08:21:16;19.30;22.60
21085;DHT22;34247;50.064;19.970;2023-02-03T08:22:21;19.30;22.50